Time;durP1;ratioP1;P1;durP2;ratioP2;P2;SDS_P1;SDS_P2;PMS_P1;PMS_P2;Temp;Humidity;BMP_temperature;BMP_pressure;BME280_temperature;BME280_humidity;BME280_pressure;Samples;Min_cycle;Max_cycle;Signal;HPM_P1;HPM_P2
2023/05/27 00:01:44;;;;;;;22.65;5.90;;;11.00;54.40;;;;;;5090545;28;38635;-89
2023/05/27 00:04:10;;;;;;;19.65;5.30;;;11.00;57.20;;;;;;5081599;27;36755;-88
2023/05/27 00:06:36;;;;;;;25.33;6.30;;;10.90;54.70;;;;;;5083321;28;37011;-89
2023/05/27 00:09:02;;;;;;;20.15;5.43;;;10.90;53.70;;;;;;5081083;27;39709;-89
2023/05/27 00:11:28;;;;;;;29.25;5.97;;;10.90;49.50;;;;;;5089633;28;37593;-89
2023/05/27 00:13:54;;;;;;;25.20;5.75;;;10.90;53.10;;;;;;5085536;28;36788;-89
2023/05/27 00:16:21;;;;;;;19.88;5.82;;;10.80;56.40;;;;;;5092989;28;38786;-89
2023/05/27 00:18:48;;;;;;;22.63;5.47;;;10.80;56.10;;;;;;5085519;28;39921;-89
2023/05/27 00:21:15;;;;;;;23.05;6.65;;;10.80;53.40;;;;;;5090093;27;39368;-91
2023/05/27 00:23:45;;;;;;;15.75;5.18;;;10.80;54.60;;;;;;5086666;28;37767;-88
2023/05/27 00:26:12;;;;;;;18.80;5.68;;;10.80;53.50;;;;;;5079078;28;35981;-89
2023/05/27 00:28:38;;;;;;;19.98;4.75;;;10.80;60.20;;;;;;5082173;28;39186;-90
2023/05/27 00:31:07;;;;;;;21.63;4.68;;;10.70;56.40;;;;;;5087720;27;38901;-89
2023/05/27 00:33:33;;;;;;;26.55;4.85;;;10.70;65.10;;;;;;5090335;28;37908;-90
2023/05/27 00:35:59;;;;;;;26.15;6.28;;;10.60;60.40;;;;;;5073252;28;38226;-90
2023/05/27 00:38:25;;;;;;;19.35;4.95;;;10.60;61.20;;;;;;5071516;28;37447;-89
2023/05/27 00:40:53;;;;;;;24.92;6.03;;;10.50;65.50;;;;;;5083217;28;39840;-89
2023/05/27 00:43:19;;;;;;;19.58;5.18;;;10.50;59.50;;;;;;5081793;28;37880;-91
2023/05/27 00:45:46;;;;;;;18.55;4.68;;;10.50;59.40;;;;;;5096250;28;38154;-89
2023/05/27 00:48:12;;;;;;;15.82;4.88;;;10.40;56.30;;;;;;5084006;27;39571;-91
2023/05/27 00:50:38;;;;;;;24.42;5.07;;;10.50;55.10;;;;;;5098661;28;38568;-90
2023/05/27 00:53:04;;;;;;;24.60;5.68;;;10.40;61.20;;;;;;5078716;28;38368;-90
2023/05/27 00:55:30;;;;;;;18.98;4.78;;;10.40;58.00;;;;;;5084963;28;37875;-90
2023/05/27 00:57:57;;;;;;;17.35;4.78;;;10.40;58.60;;;;;;5082199;28;37476;-91
2023/05/27 01:02:59;;;;;;;19.67;4.60;;;10.30;62.30;;;;;;5447756;22;20056;-78
2023/05/27 01:05:25;;;;;;;18.23;4.47;;;10.30;60.80;;;;;;5048162;28;36606;-78
2023/05/27 01:08:03;;;;;;;22.75;5.75;;;10.30;66.40;;;;;;5052524;28;37675;-79
2023/05/27 01:10:43;;;;;;;18.73;5.75;;;10.20;69.10;;;;;;5049813;28;48224;-79
2023/05/27 01:13:12;;;;;;;16.58;4.40;;;10.20;73.80;;;;;;5048817;28;36452;-79
2023/05/27 01:15:39;;;;;;;20.77;5.18;;;10.10;78.20;;;;;;5054260;28;36652;-79
2023/05/27 01:18:08;;;;;;;26.42;6.10;;;10.10;78.20;;;;;;5050292;28;37767;-79
2023/05/27 01:20:40;;;;;;;18.23;5.35;;;10.10;83.10;;;;;;5053320;28;37897;-79
2023/05/27 01:23:08;;;;;;;17.27;4.55;;;10.10;81.50;;;;;;5055743;28;38238;-79
2023/05/27 01:25:34;;;;;;;17.90;5.88;;;10.00;86.10;;;;;;5046985;28;38161;-78
2023/05/27 01:28:00;;;;;;;18.05;4.60;;;10.00;83.40;;;;;;5062180;28;37905;-79
2023/05/27 01:30:31;;;;;;;19.10;5.10;;;10.00;85.70;;;;;;5059960;28;37810;-78
2023/05/27 01:33:07;;;;;;;18.42;4.55;;;9.90;89.90;;;;;;5045059;28;36669;-79
2023/05/27 01:35:49;;;;;;;19.73;4.95;;;9.90;88.40;;;;;;5049349;28;47320;-78
2023/05/27 01:38:18;;;;;;;21.08;5.40;;;9.90;90.00;;;;;;5058471;28;38878;-79
2023/05/27 01:40:45;;;;;;;21.35;5.07;;;9.90;89.40;;;;;;5048647;28;37339;-79
2023/05/27 01:43:13;;;;;;;18.23;4.55;;;9.90;91.60;;;;;;5053389;28;37878;-79
2023/05/27 01:45:39;;;;;;;19.60;5.93;;;9.80;92.60;;;;;;5057650;28;37209;-80
2023/05/27 01:48:06;;;;;;;19.80;4.70;;;9.80;92.20;;;;;;5058539;28;37575;-79
2023/05/27 01:50:33;;;;;;;26.17;5.35;;;9.80;92.00;;;;;;5058023;28;38719;-79
2023/05/27 01:53:00;;;;;;;19.27;4.82;;;9.80;93.10;;;;;;5056107;28;38057;-79
2023/05/27 01:55:26;;;;;;;18.67;5.38;;;9.70;93.40;;;;;;5048359;28;37405;-79
2023/05/27 01:57:53;;;;;;;17.90;4.60;;;9.70;94.80;;;;;;5056559;28;38463;-78
2023/05/27 02:00:19;;;;;;;21.48;5.40;;;9.70;94.10;;;;;;5055209;28;38465;-79
2023/05/27 02:02:45;;;;;;;23.10;5.90;;;9.70;94.10;;;;;;5054533;28;36465;-79
2023/05/27 02:05:11;;;;;;;16.50;4.72;;;9.70;94.20;;;;;;5049321;28;36127;-79
2023/05/27 02:07:38;;;;;;;13.90;4.38;;;9.70;96.10;;;;;;5049345;28;37724;-79
2023/05/27 02:10:05;;;;;;;13.75;4.47;;;9.60;98.60;;;;;;5054496;28;38455;-79
2023/05/27 02:12:31;;;;;;;19.73;4.88;;;9.60;97.40;;;;;;5058867;28;37051;-79
2023/05/27 02:14:57;;;;;;;19.63;4.95;;;9.60;97.10;;;;;;5062126;28;36996;-80
2023/05/27 02:17:24;;;;;;;17.88;5.05;;;9.50;97.10;;;;;;5060490;28;38964;-79
2023/05/27 02:19:51;;;;;;;16.95;5.30;;;9.50;98.40;;;;;;5059452;28;37563;-79
2023/05/27 02:22:17;;;;;;;19.02;5.25;;;9.50;99.10;;;;;;5045278;28;36469;-79
2023/05/27 02:24:43;;;;;;;16.67;4.32;;;9.60;99.30;;;;;;5056173;28;36089;-80
2023/05/27 02:27:10;;;;;;;23.20;4.68;;;9.50;99.40;;;;;;5052820;28;37274;-79
2023/05/27 02:29:37;;;;;;;19.85;4.55;;;9.40;98.70;;;;;;5057287;28;39338;-78
2023/05/27 02:32:03;;;;;;;18.98;5.05;;;9.50;99.50;;;;;;5053958;28;36509;-80
2023/05/27 02:34:29;;;;;;;21.55;4.50;;;9.40;99.20;;;;;;5067271;28;36287;-80
2023/05/27 02:36:55;;;;;;;18.02;4.32;;;9.40;99.70;;;;;;5062519;28;39975;-79
2023/05/27 02:39:21;;;;;;;24.53;5.37;;;9.40;99.90;;;;;;5057396;28;37290;-80
2023/05/27 02:41:47;;;;;;;19.23;4.67;;;9.40;99.90;;;;;;5057132;28;36547;-80
2023/05/27 02:44:14;;;;;;;18.52;5.60;;;9.30;99.90;;;;;;5058107;28;36511;-79
2023/05/27 02:46:40;;;;;;;24.48;5.32;;;9.30;99.90;;;;;;5057268;28;37715;-79
2023/05/27 02:49:06;;;;;;;17.95;5.00;;;9.30;99.90;;;;;;5052494;28;36785;-79
2023/05/27 02:51:32;;;;;;;16.38;5.15;;;9.30;99.90;;;;;;5051364;28;37426;-80
2023/05/27 02:53:58;;;;;;;25.87;4.70;;;9.30;99.90;;;;;;5065734;28;36197;-80
2023/05/27 02:56:27;;;;;;;18.00;4.93;;;9.20;99.90;;;;;;5070293;28;37594;-78
2023/05/27 02:58:53;;;;;;;19.35;5.43;;;9.20;99.90;;;;;;5066443;28;38246;-79
2023/05/27 03:01:20;;;;;;;15.77;4.65;;;9.30;99.90;;;;;;5058919;28;36258;-79
2023/05/27 03:03:46;;;;;;;14.77;4.15;;;9.20;99.90;;;;;;5053603;28;37035;-79
2023/05/27 03:06:12;;;;;;;19.83;4.90;;;9.20;99.90;;;;;;5057671;28;39030;-79
2023/05/27 03:08:38;;;;;;;16.83;4.77;;;9.20;99.90;;;;;;5071322;28;38179;-80
2023/05/27 03:11:04;;;;;;;18.10;4.57;;;9.20;99.90;;;;;;5057791;28;38579;-81
2023/05/27 03:13:30;;;;;;;21.50;5.70;;;9.20;99.90;;;;;;5057294;28;36398;-79
2023/05/27 03:15:58;;;;;;;22.98;5.13;;;9.20;99.90;;;;;;5061053;28;38011;-79
2023/05/27 03:18:24;;;;;;;15.05;4.60;;;9.20;99.90;;;;;;5065027;28;39321;-80
2023/05/27 03:20:51;;;;;;;20.23;5.47;;;9.10;99.90;;;;;;5045786;28;39115;-80
2023/05/27 03:23:17;;;;;;;20.23;4.60;;;9.10;99.90;;;;;;5064613;28;37457;-79
2023/05/27 03:25:43;;;;;;;18.97;4.60;;;9.10;99.90;;;;;;5058261;28;37451;-80
2023/05/27 03:28:10;;;;;;;15.05;4.32;;;9.10;99.90;;;;;;5060130;28;38092;-80
2023/05/27 03:30:36;;;;;;;15.70;3.97;;;9.10;99.90;;;;;;5058459;28;38311;-79
2023/05/27 03:33:02;;;;;;;13.73;4.28;;;9.00;99.90;;;;;;5057311;28;37542;-80
2023/05/27 03:35:28;;;;;;;17.93;4.70;;;9.00;99.90;;;;;;5068005;28;38883;-80
2023/05/27 03:37:54;;;;;;;15.20;5.35;;;9.00;99.90;;;;;;5068427;28;38264;-79
2023/05/27 03:40:20;;;;;;;17.93;4.57;;;9.00;99.90;;;;;;5057501;28;39030;-79
2023/05/27 03:42:47;;;;;;;17.93;5.00;;;9.00;99.90;;;;;;5066485;28;37067;-80
2023/05/27 03:45:13;;;;;;;21.23;4.80;;;8.90;99.90;;;;;;5061138;28;37834;-80
2023/05/27 03:47:39;;;;;;;13.73;4.47;;;8.80;99.90;;;;;;5063568;28;37351;-79
2023/05/27 03:50:05;;;;;;;17.73;5.53;;;8.90;99.90;;;;;;5059982;28;36527;-80
2023/05/27 03:52:32;;;;;;;18.77;5.00;;;8.80;99.90;;;;;;5055132;28;47184;-79
2023/05/27 03:54:58;;;;;;;19.60;4.70;;;8.80;99.90;;;;;;5049898;28;37799;-80
2023/05/27 03:57:24;;;;;;;16.13;4.72;;;8.80;99.90;;;;;;5057691;28;38713;-80
2023/05/27 03:59:50;;;;;;;14.83;4.50;;;8.80;99.90;;;;;;5058591;28;36884;-79
2023/05/27 04:02:16;;;;;;;21.30;4.93;;;8.80;99.90;;;;;;5050838;28;37498;-80
2023/05/27 04:04:43;;;;;;;18.10;4.70;;;8.80;99.90;;;;;;5057935;28;38031;-81
2023/05/27 04:07:09;;;;;;;16.70;4.73;;;8.80;99.90;;;;;;5053743;28;38013;-79
2023/05/27 04:09:35;;;;;;;26.03;6.20;;;8.80;99.90;;;;;;5058902;28;37529;-80
2023/05/27 04:12:01;;;;;;;20.33;4.77;;;8.80;99.90;;;;;;5054406;28;38570;-80
2023/05/27 04:14:28;;;;;;;24.57;5.73;;;8.80;99.90;;;;;;5058635;28;38288;-79
2023/05/27 04:16:54;;;;;;;20.37;6.20;;;8.80;99.90;;;;;;5060491;28;39301;-79
2023/05/27 04:19:20;;;;;;;18.97;4.73;;;8.80;99.90;;;;;;5059384;28;36248;-80
2023/05/27 04:21:46;;;;;;;19.60;4.60;;;8.80;99.90;;;;;;5054531;28;36146;-79
2023/05/27 04:24:12;;;;;;;18.43;4.47;;;8.80;99.90;;;;;;5051903;28;37581;-80
2023/05/27 04:26:40;;;;;;;21.50;5.13;;;8.80;99.90;;;;;;5058646;28;38282;-80
2023/05/27 04:29:09;;;;;;;17.17;5.80;;;8.80;99.90;;;;;;5056590;28;37621;-81
2023/05/27 04:31:36;;;;;;;20.63;5.40;;;8.80;99.90;;;;;;5052247;28;37307;-80
2023/05/27 04:34:02;;;;;;;17.47;4.90;;;8.90;99.90;;;;;;5047909;28;38829;-80
2023/05/27 04:36:33;;;;;;;16.90;4.90;;;8.90;99.90;;;;;;5052925;28;37454;-80
2023/05/27 04:39:01;;;;;;;21.33;5.57;;;8.90;99.90;;;;;;5055337;28;38527;-80
2023/05/27 04:41:28;;;;;;;16.73;4.50;;;9.00;99.90;;;;;;5051229;28;47032;-80
2023/05/27 04:43:56;;;;;;;18.58;4.47;;;9.00;99.90;;;;;;5054713;28;38798;-80
2023/05/27 04:46:24;;;;;;;16.40;4.57;;;9.00;99.90;;;;;;5052636;28;39752;-79
2023/05/27 04:48:55;;;;;;;19.05;4.85;;;9.00;99.90;;;;;;5060891;28;36794;-80
2023/05/27 04:51:22;;;;;;;15.27;4.65;;;9.10;99.90;;;;;;5049513;28;36955;-80
2023/05/27 04:53:49;;;;;;;19.00;4.65;;;9.10;99.90;;;;;;5052333;28;37952;-79
2023/05/27 04:56:16;;;;;;;18.08;4.65;;;9.10;99.90;;;;;;5055024;28;37830;-79
2023/05/27 04:58:46;;;;;;;21.05;5.18;;;9.10;99.90;;;;;;5051409;28;36814;-79
2023/05/27 05:01:21;;;;;;;19.75;5.28;;;9.20;99.90;;;;;;5055719;28;34107;-80
2023/05/27 05:04:10;;;;;;;18.25;4.55;;;9.20;99.90;;;;;;5059858;28;39270;-79
2023/05/27 05:06:39;;;;;;;19.25;5.55;;;9.30;99.90;;;;;;5052784;28;47055;-78
2023/05/27 05:09:07;;;;;;;17.80;4.32;;;9.40;99.90;;;;;;5053785;28;37922;-80
2023/05/27 05:11:33;;;;;;;19.20;4.47;;;9.60;99.90;;;;;;5066127;28;37521;-79
2023/05/27 05:13:59;;;;;;;16.48;4.60;;;9.70;99.90;;;;;;5050970;28;37586;-79
2023/05/27 05:16:25;;;;;;;26.33;5.15;;;9.90;99.90;;;;;;5050429;28;37137;-79
2023/05/27 05:18:51;;;;;;;20.63;4.75;;;10.20;99.90;;;;;;5056848;28;37786;-79
2023/05/27 05:21:17;;;;;;;16.25;4.80;;;10.40;95.80;;;;;;5060934;28;37081;-79
2023/05/27 05:23:44;;;;;;;22.83;5.38;;;10.50;90.10;;;;;;5057623;28;37628;-79
2023/05/27 05:26:10;;;;;;;21.30;5.40;;;10.70;82.70;;;;;;5064803;28;37482;-80
2023/05/27 05:28:36;;;;;;;18.73;4.97;;;10.70;78.40;;;;;;5056107;28;37518;-79
2023/05/27 05:31:02;;;;;;;14.90;4.35;;;10.90;69.80;;;;;;5054378;28;36323;-80
2023/05/27 05:33:28;;;;;;;16.15;4.35;;;11.00;70.50;;;;;;5056590;28;38716;-81
2023/05/27 05:35:55;;;;;;;16.55;4.35;;;11.00;57.60;;;;;;5062028;28;38219;-80
2023/05/27 05:38:21;;;;;;;16.92;4.43;;;10.80;57.90;;;;;;5056339;28;37517;-80
2023/05/27 05:40:49;;;;;;;20.38;4.55;;;10.80;64.30;;;;;;5057685;28;37631;-78
2023/05/27 05:43:15;;;;;;;16.65;4.60;;;10.80;61.50;;;;;;5057053;28;37121;-78
2023/05/27 05:45:41;;;;;;;21.95;4.88;;;10.70;63.50;;;;;;5052086;28;38573;-78
2023/05/27 05:48:07;;;;;;;19.67;4.05;;;10.70;60.70;;;;;;5048956;28;37975;-78
2023/05/27 05:50:34;;;;;;;16.83;4.30;;;10.70;67.80;;;;;;5048071;28;37572;-81
2023/05/27 05:53:00;;;;;;;11.90;3.95;;;10.70;64.40;;;;;;5049973;28;38038;-80
2023/05/27 05:55:26;;;;;;;19.13;5.25;;;10.90;77.50;;;;;;5044825;28;39347;-77
2023/05/27 05:57:52;;;;;;;14.88;4.38;;;11.20;58.00;;;;;;5058576;28;37618;-78
2023/05/27 06:00:19;;;;;;;18.15;4.18;;;11.40;43.70;;;;;;5050511;28;35832;-78
2023/05/27 06:02:45;;;;;;;14.25;3.92;;;11.70;38.20;;;;;;5055305;28;38006;-78
2023/05/27 06:05:11;;;;;;;16.20;4.15;;;11.80;32.50;;;;;;5051917;28;36970;-78
2023/05/27 06:07:37;;;;;;;15.57;3.50;;;11.90;20.70;;;;;;5052151;28;38953;-78
2023/05/27 06:10:03;;;;;;;22.00;3.80;;;12.10;8.20;;;;;;5049667;28;37136;-78
2023/05/27 06:12:29;;;;;;;11.65;4.13;;;12.00;8.60;;;;;;5047715;28;38143;-78
2023/05/27 06:14:55;;;;;;;16.23;3.97;;;12.30;1.00;;;;;;5043555;28;37992;-79
2023/05/27 06:17:21;;;;;;;16.48;5.10;;;12.60;1.00;;;;;;5055481;28;37957;-78
2023/05/27 06:19:48;;;;;;;13.45;3.97;;;12.90;1.00;;;;;;5061538;28;37657;-79
2023/05/27 06:22:14;;;;;;;18.63;4.70;;;12.90;1.00;;;;;;5043887;28;39286;-78
2023/05/27 06:24:41;;;;;;;15.32;4.97;;;13.00;1.00;;;;;;5054254;28;38713;-78
2023/05/27 06:27:07;;;;;;;14.40;4.10;;;13.10;1.00;;;;;;5060011;28;37532;-79
2023/05/27 06:29:33;;;;;;;16.00;4.40;;;12.90;1.00;;;;;;5062924;28;36356;-79
2023/05/27 06:32:00;;;;;;;21.65;4.40;;;12.90;1.00;;;;;;5054930;28;38861;-78
2023/05/27 06:34:26;;;;;;;15.05;3.97;;;12.90;1.00;;;;;;5056526;28;37500;-78
2023/05/27 06:36:53;;;;;;;21.50;4.85;;;13.10;1.00;;;;;;5061867;28;20057;-79
2023/05/27 06:39:20;;;;;;;24.35;4.82;;;13.10;1.00;;;;;;5059648;28;37959;-79
2023/05/27 06:41:46;;;;;;;17.25;4.60;;;13.00;1.00;;;;;;5050500;28;38496;-77
2023/05/27 06:44:13;;;;;;;18.58;4.30;;;12.90;1.00;;;;;;5059675;28;38913;-77
2023/05/27 06:46:39;;;;;;;16.10;4.43;;;12.90;1.00;;;;;;5056305;28;36651;-78
2023/05/27 06:49:05;;;;;;;19.25;4.72;;;13.30;1.00;;;;;;5056291;28;36666;-79
2023/05/27 06:51:31;;;;;;;18.48;5.28;;;13.50;1.00;;;;;;5054670;28;38939;-78
2023/05/27 06:53:58;;;;;;;19.48;5.00;;;13.30;1.00;;;;;;5055583;28;38479;-78
2023/05/27 06:56:24;;;;;;;15.45;5.00;;;13.20;1.00;;;;;;5051210;28;38268;-77
2023/05/27 06:58:50;;;;;;;16.20;4.65;;;13.30;1.00;;;;;;5049402;28;35864;-78
2023/05/27 07:01:22;;;;;;;20.80;4.97;;;13.60;1.00;;;;;;5047264;28;37774;-79
2023/05/27 07:03:48;;;;;;;14.95;4.90;;;13.70;1.00;;;;;;5052498;28;37148;-78
2023/05/27 07:06:16;;;;;;;14.52;4.40;;;13.60;1.00;;;;;;5054514;28;37606;-78
2023/05/27 07:08:42;;;;;;;17.17;4.50;;;13.50;1.00;;;;;;5041524;28;36278;-78
2023/05/27 07:11:08;;;;;;;19.15;5.55;;;13.30;1.00;;;;;;5049191;28;38956;-77
2023/05/27 07:13:34;;;;;;;17.95;5.00;;;13.50;1.00;;;;;;5045692;28;37458;-77
2023/05/27 07:16:00;;;;;;;18.02;4.57;;;13.90;1.00;;;;;;5049523;28;37319;-77
2023/05/27 07:18:26;;;;;;;18.40;4.57;;;14.30;1.00;;;;;;5047575;28;47555;-78
2023/05/27 07:20:52;;;;;;;15.10;4.70;;;14.60;1.00;;;;;;5053309;28;38716;-79
2023/05/27 07:23:18;;;;;;;14.98;4.22;;;14.70;1.00;;;;;;5045892;28;38344;-80
2023/05/27 07:25:44;;;;;;;14.48;4.20;;;15.10;1.00;;;;;;5040484;28;38286;-81
2023/05/27 07:28:10;;;;;;;14.88;4.35;;;15.10;1.00;;;;;;5040687;28;36967;-84
2023/05/27 07:30:37;;;;;;;13.13;3.95;;;15.40;1.00;;;;;;5037252;28;39255;-86
2023/05/27 07:33:03;;;;;;;12.95;4.40;;;15.40;99.90;;;;;;5041464;28;37191;-86
2023/05/27 07:35:29;;;;;;;19.75;5.13;;;15.40;99.90;;;;;;5040052;28;37822;-84
2023/05/27 07:37:55;;;;;;;16.13;4.38;;;15.60;99.90;;;;;;5043685;28;37114;-83
2023/05/27 07:40:21;;;;;;;17.50;5.47;;;15.80;99.90;;;;;;5034307;28;39054;-84
2023/05/27 07:42:47;;;;;;;21.70;5.00;;;15.70;1.00;;;;;;5037192;28;38202;-84
2023/05/27 07:45:14;;;;;;;18.92;4.88;;;15.80;99.90;;;;;;5042896;28;36984;-83
2023/05/27 07:47:40;;;;;;;14.18;4.22;;;16.20;1.00;;;;;;5043589;28;37969;-81
2023/05/27 07:50:06;;;;;;;16.67;5.28;;;16.40;1.00;;;;;;5035830;28;38028;-81
2023/05/27 07:52:32;;;;;;;13.80;4.18;;;16.70;1.00;;;;;;5039543;28;38544;-86
2023/05/27 07:54:58;;;;;;;15.43;4.53;;;16.80;1.00;;;;;;5044273;28;36661;-85
2023/05/27 07:57:24;;;;;;;11.18;4.18;;;16.90;1.00;;;;;;5044618;28;35887;-78
2023/05/27 07:59:50;;;;;;;16.58;4.72;;;16.90;99.90;;;;;;5044059;28;37696;-79
2023/05/27 08:02:17;;;;;;;15.57;4.38;;;17.10;1.00;;;;;;5033957;28;38922;-81
2023/05/27 08:04:44;;;;;;;14.60;4.65;;;17.20;1.00;;;;;;5043955;28;38775;-81
2023/05/27 08:07:10;;;;;;;17.65;5.40;;;16.90;1.00;;;;;;5042258;28;37981;-81
2023/05/27 08:09:36;;;;;;;13.48;4.93;;;17.10;1.00;;;;;;5046366;28;38623;-80
2023/05/27 08:12:03;;;;;;;18.92;5.32;;;17.20;1.00;;;;;;5047026;28;37139;-81
2023/05/27 08:14:29;;;;;;;14.93;4.90;;;17.30;1.00;;;;;;5047488;28;36796;-81
2023/05/27 08:16:55;;;;;;;15.70;4.70;;;17.40;99.90;;;;;;5050926;28;36355;-80
2023/05/27 08:19:21;;;;;;;21.45;5.32;;;17.50;1.00;;;;;;5040000;28;39012;-81
2023/05/27 08:21:47;;;;;;;12.35;4.35;;;17.60;1.00;;;;;;5044729;28;37566;-82
2023/05/27 08:24:14;;;;;;;20.58;5.13;;;17.70;28.10;;;;;;5033539;28;36369;-81
2023/05/27 08:26:40;;;;;;;18.05;4.88;;;17.40;1.00;;;;;;5036544;28;36671;-80
2023/05/27 08:29:06;;;;;;;19.63;5.10;;;17.60;99.90;;;;;;5032507;28;38313;-79
2023/05/27 08:31:32;;;;;;;20.42;5.00;;;17.80;99.90;;;;;;5036087;28;38676;-79
2023/05/27 08:33:59;;;;;;;12.55;4.65;;;17.80;1.00;;;;;;5037622;28;36816;-81
2023/05/27 08:36:25;;;;;;;19.45;5.28;;;17.80;1.00;;;;;;5037488;28;36964;-81
2023/05/27 08:38:51;;;;;;;14.82;4.68;;;18.00;99.90;;;;;;5030581;28;37561;-81
2023/05/27 08:41:17;;;;;;;14.60;4.57;;;18.00;99.90;;;;;;5034841;28;38545;-81
2023/05/27 08:43:44;;;;;;;16.17;4.70;;;18.10;90.80;;;;;;5033118;28;37174;-78
2023/05/27 08:46:11;;;;;;;14.73;4.47;;;18.10;1.00;;;;;;5023505;28;38192;-79
2023/05/27 08:48:37;;;;;;;18.35;5.63;;;18.40;99.90;;;;;;5025520;28;38833;-79
2023/05/27 08:51:05;;;;;;;20.08;5.30;;;18.20;99.90;;;;;;5031821;28;38224;-80
2023/05/27 08:53:32;;;;;;;19.60;4.78;;;18.10;1.00;;;;;;5033345;28;37342;-80
2023/05/27 08:56:01;;;;;;;15.32;4.88;;;18.30;1.00;;;;;;5038447;28;36011;-81
2023/05/27 08:58:28;;;;;;;15.90;5.07;;;18.70;99.90;;;;;;5037145;28;47274;-80
2023/05/27 09:00:55;;;;;;;15.80;5.22;;;18.60;1.00;;;;;;5037348;28;38386;-79
2023/05/27 09:03:22;;;;;;;18.25;4.95;;;18.80;1.00;;;;;;5052577;28;36888;-80
2023/05/27 09:05:48;;;;;;;17.92;5.35;;;19.00;1.00;;;;;;5040967;28;36353;-79
2023/05/27 09:08:14;;;;;;;12.88;4.65;;;18.70;1.00;;;;;;5036636;28;39180;-80
2023/05/27 09:10:42;;;;;;;16.63;4.82;;;18.80;1.00;;;;;;5038263;28;37360;-81
2023/05/27 09:13:08;;;;;;;20.17;5.75;;;18.90;1.00;;;;;;5043996;28;38499;-81
2023/05/27 09:15:35;;;;;;;20.55;5.55;;;19.00;99.80;;;;;;5032454;28;36307;-81
2023/05/27 09:18:02;;;;;;;15.73;5.32;;;18.50;1.00;;;;;;5036764;28;36443;-80
2023/05/27 09:20:29;;;;;;;17.10;5.00;;;18.80;1.00;;;;;;5035829;28;47011;-82
2023/05/27 09:23:00;;;;;;;16.10;5.03;;;18.70;1.00;;;;;;5034522;28;36971;-80
2023/05/27 09:25:27;;;;;;;13.95;4.85;;;19.20;99.90;;;;;;5038017;28;36958;-82
2023/05/27 09:27:55;;;;;;;18.67;5.00;;;18.90;1.00;;;;;;5036676;28;38911;-80
2023/05/27 09:30:23;;;;;;;17.45;5.40;;;19.10;14.10;;;;;;5039675;28;38236;-79
2023/05/27 09:32:50;;;;;;;17.13;5.10;;;19.40;1.00;;;;;;5047577;28;37391;-80
2023/05/27 09:35:17;;;;;;;18.02;5.28;;;19.80;99.90;;;;;;5046220;28;38135;-79
2023/05/27 09:37:45;;;;;;;18.23;5.68;;;19.90;1.00;;;;;;5050494;28;37786;-80
2023/05/27 09:40:12;;;;;;;16.05;5.05;;;19.90;91.90;;;;;;5017496;28;37495;-79
2023/05/27 09:42:43;;;;;;;18.67;5.88;;;20.00;1.00;;;;;;5044829;28;38055;-82
2023/05/27 09:45:17;;;;;;;16.30;5.53;;;19.90;1.00;;;;;;5048394;28;37223;-78
2023/05/27 09:47:53;;;;;;;15.30;4.90;;;19.70;1.00;;;;;;5041988;28;37377;-79
2023/05/27 09:50:21;;;;;;;15.80;5.35;;;20.00;1.00;;;;;;5043968;28;39342;-79
2023/05/27 09:52:48;;;;;;;14.52;5.38;;;20.30;99.90;;;;;;5049420;28;38496;-80
2023/05/27 09:55:16;;;;;;;17.67;5.20;;;20.40;99.90;;;;;;5041748;28;36251;-83
2023/05/27 09:57:43;;;;;;;17.48;4.90;;;20.30;64.80;;;;;;5041802;28;39017;-81
2023/05/27 10:00:12;;;;;;;19.80;5.15;;;20.30;1.00;;;;;;5037864;28;39040;-82
2023/05/27 10:02:41;;;;;;;16.13;5.43;;;20.60;1.00;;;;;;5045750;28;37622;-81
2023/05/27 10:05:08;;;;;;;15.95;5.80;;;20.90;99.90;;;;;;5041678;28;37395;-81
2023/05/27 10:07:38;;;;;;;19.73;5.40;;;20.70;1.00;;;;;;5041756;28;39225;-81
2023/05/27 10:10:09;;;;;;;14.02;5.30;;;21.00;1.00;;;;;;5040982;28;37196;-84
2023/05/27 10:12:37;;;;;;;14.82;5.47;;;20.60;16.40;;;;;;5044449;28;48602;-83
2023/05/27 10:15:04;;;;;;;17.13;5.70;;;20.90;5.00;;;;;;5051121;28;36320;-82
2023/05/27 10:17:52;;;;;;;15.90;5.30;;;20.90;1.00;;;;;;5050093;28;48303;-82
2023/05/27 10:20:30;;;;;;;19.13;6.40;;;20.90;1.00;;;;;;5043122;28;38771;-81
2023/05/27 10:23:10;;;;;;;13.63;4.43;;;21.10;1.00;;;;;;5044544;28;36433;-81
2023/05/27 10:25:38;;;;;;;14.55;4.80;;;21.40;99.90;;;;;;5038624;28;47261;-82
2023/05/27 10:28:07;;;;;;;19.23;6.07;;;21.60;1.00;;;;;;5033937;28;38790;-81
2023/05/27 10:30:44;;;;;;;16.20;5.80;;;21.90;1.00;;;;;;5028942;28;37971;-85
2023/05/27 10:33:11;;;;;;;14.63;5.25;;;21.70;1.00;;;;;;5033560;28;37464;-82
2023/05/27 10:35:42;;;;;;;12.27;4.80;;;21.40;1.00;;;;;;5028813;28;35977;-84
2023/05/27 10:38:15;;;;;;;11.60;4.78;;;21.50;1.00;;;;;;5033243;28;37975;-85
2023/05/27 10:40:41;;;;;;;14.23;4.53;;;21.70;1.00;;;;;;5032852;28;38405;-83
2023/05/27 10:43:15;;;;;;;16.23;5.47;;;22.00;1.00;;;;;;5030443;28;36091;-81
2023/05/27 10:45:41;;;;;;;16.98;5.75;;;22.00;1.00;;;;;;5026698;28;33407;-82
2023/05/27 10:48:20;;;;;;;17.17;5.45;;;22.20;1.00;;;;;;5030058;28;37968;-82
2023/05/27 10:50:51;;;;;;;14.23;5.57;;;21.90;1.00;;;;;;5031918;28;38252;-83
2023/05/27 10:53:21;;;;;;;18.38;5.65;;;22.40;1.00;;;;;;5034730;28;37999;-83
2023/05/27 10:55:51;;;;;;;13.38;5.25;;;21.90;99.90;;;;;;5036170;28;37489;-83
2023/05/27 10:58:18;;;;;;;11.95;4.72;;;21.50;1.00;;;;;;5029415;28;38848;-83
2023/05/27 11:00:47;;;;;;;18.25;5.32;;;21.70;99.90;;;;;;5037615;28;38977;-82
2023/05/27 11:03:44;;;;;;;12.02;4.93;;;22.00;1.00;;;;;;5051141;28;37172;-83
2023/05/27 11:06:10;;;;;;;14.95;5.47;;;22.30;99.90;;;;;;5037796;28;38379;-83
2023/05/27 11:08:39;;;;;;;16.65;6.30;;;22.00;1.00;;;;;;5032998;28;37811;-84
2023/05/27 11:11:10;;;;;;;17.30;5.72;;;21.70;99.90;;;;;;5037103;28;36949;-81
2023/05/27 11:13:42;;;;;;;13.77;4.95;;;22.20;1.00;;;;;;5043344;28;36794;-82
2023/05/27 11:16:09;;;;;;;14.13;4.70;;;22.30;99.90;;;;;;5033793;28;35996;-82
2023/05/27 11:18:37;;;;;;;12.95;4.68;;;22.50;99.90;;;;;;5044037;28;38620;-82
2023/05/27 11:21:04;;;;;;;13.07;5.30;;;22.20;1.00;;;;;;5037254;28;39221;-81
2023/05/27 11:23:49;;;;;;;19.05;6.15;;;22.70;1.00;;;;;;5034757;28;36971;-82
2023/05/27 11:26:17;;;;;;;14.38;5.43;;;22.30;1.00;;;;;;5040151;28;37706;-81
2023/05/27 11:29:02;;;;;;;12.68;5.75;;;22.40;1.00;;;;;;5042820;28;38677;-81
2023/05/27 11:31:30;;;;;;;12.45;4.82;;;22.70;99.90;;;;;;5041460;28;48829;-81
2023/05/27 11:33:57;;;;;;;22.63;5.47;;;22.40;99.90;;;;;;5043822;28;37749;-81
2023/05/27 11:36:28;;;;;;;12.50;5.00;;;22.60;99.90;;;;;;5046400;28;37056;-80
2023/05/27 11:38:57;;;;;;;12.10;5.30;;;22.80;99.90;;;;;;5034204;28;37980;-81
2023/05/27 11:41:26;;;;;;;13.52;5.60;;;22.80;99.90;;;;;;5040113;28;37426;-80
2023/05/27 11:44:01;;;;;;;17.60;5.32;;;22.20;99.90;;;;;;5034755;28;38769;-80
2023/05/27 11:46:38;;;;;;;16.48;5.68;;;22.70;99.90;;;;;;5024115;28;49194;-80
2023/05/27 11:49:06;;;;;;;13.05;5.18;;;22.80;99.90;;;;;;5039517;28;38016;-80
2023/05/27 11:51:36;;;;;;;12.90;5.50;;;22.70;99.90;;;;;;5041370;28;39498;-81
2023/05/27 11:54:02;;;;;;;12.93;4.95;;;22.40;99.90;;;;;;5043048;28;38228;-81
2023/05/27 11:56:28;;;;;;;13.63;5.13;;;22.10;99.90;;;;;;5047501;28;37621;-80
2023/05/27 11:58:55;;;;;;;12.40;5.32;;;22.70;99.90;;;;;;5041508;28;38412;-80
2023/05/27 12:01:22;;;;;;;12.60;4.70;;;22.90;99.90;;;;;;5035345;28;38132;-80
2023/05/27 12:03:48;;;;;;;13.23;5.03;;;22.50;99.90;;;;;;5035862;28;37387;-80
2023/05/27 12:06:14;;;;;;;11.48;4.82;;;22.60;99.90;;;;;;5038696;28;37382;-80
2023/05/27 12:08:44;;;;;;;11.55;4.72;;;23.00;99.90;;;;;;5026500;28;37730;-80
2023/05/27 12:11:10;;;;;;;15.80;4.80;;;23.30;99.90;;;;;;5036434;28;37567;-80
2023/05/27 12:13:36;;;;;;;15.20;4.75;;;23.30;99.90;;;;;;5037250;28;37614;-80
2023/05/27 12:16:05;;;;;;;9.52;3.60;;;23.40;99.90;;;;;;5039763;28;37333;-79
2023/05/27 12:18:31;;;;;;;13.57;4.45;;;23.40;99.90;;;;;;5042269;28;37857;-80
2023/05/27 12:20:58;;;;;;;10.25;4.00;;;23.30;99.90;;;;;;5035617;28;37123;-81
2023/05/27 12:23:25;;;;;;;10.18;3.95;;;23.50;99.90;;;;;;5038876;28;36625;-78
2023/05/27 12:25:51;;;;;;;14.25;4.38;;;23.90;99.90;;;;;;5037355;28;36461;-82
2023/05/27 12:28:17;;;;;;;13.65;5.05;;;23.60;99.90;;;;;;5029784;28;38036;-80
2023/05/27 12:30:43;;;;;;;13.07;4.78;;;22.90;61.00;;;;;;5044480;28;39331;-83
2023/05/27 12:33:09;;;;;;;12.00;4.43;;;23.00;99.90;;;;;;5032772;28;36734;-82
2023/05/27 12:35:35;;;;;;;13.43;4.82;;;23.40;99.90;;;;;;5037495;28;37102;-82
2023/05/27 12:38:01;;;;;;;10.00;4.22;;;23.60;99.90;;;;;;5029515;28;38632;-82
2023/05/27 12:40:28;;;;;;;13.70;4.80;;;23.50;85.20;;;;;;5047844;28;47006;-81
2023/05/27 12:42:54;;;;;;;11.65;4.13;;;23.70;99.90;;;;;;5036642;28;39091;-81
2023/05/27 12:45:25;;;;;;;11.05;3.55;;;23.50;92.70;;;;;;5034576;28;36994;-81
2023/05/27 12:47:52;;;;;;;8.88;3.65;;;23.50;99.90;;;;;;5034934;28;38415;-81